createdAt,value
2023-04-15T00:00:04.269Z,90.43
2023-04-15T00:01:04.621Z,90.53
2023-04-15T00:02:04.329Z,90.64
2023-04-15T00:03:04.498Z,90.84
2023-04-15T00:04:04.275Z,91.05
2023-04-15T00:05:04.215Z,91.16
2023-04-15T00:06:05.014Z,91.05
2023-04-15T00:07:04.194Z,90.95
2023-04-15T00:08:04.180Z,90.95
2023-04-15T00:09:04.181Z,91.16
2023-04-15T00:10:04.162Z,91.26
2023-04-15T00:11:04.478Z,91.09
2023-04-15T00:12:04.139Z,91.09
2023-04-15T00:13:04.135Z,90.89
2023-04-15T00:14:04.116Z,90.89
2023-04-15T00:15:04.107Z,91.50
2023-04-15T00:16:04.108Z,91.50
2023-04-15T00:17:04.705Z,91.71
2023-04-15T00:18:04.082Z,91.71
2023-04-15T00:19:04.073Z,91.40
2023-04-15T00:20:04.061Z,91.50
2023-04-15T00:21:04.055Z,91.82
2023-04-15T00:22:04.528Z,92.02
2023-04-15T00:23:04.402Z,91.82
2023-04-15T00:24:04.035Z,92.13
2023-04-15T00:25:04.013Z,92.13
2023-04-15T00:26:04.014Z,92.27
2023-04-15T00:27:04.239Z,92.48
2023-04-15T00:28:04.099Z,92.48
2023-04-15T00:29:03.964Z,92.38
2023-04-15T00:30:03.960Z,92.38
2023-04-15T00:31:04.024Z,92.68
2023-04-15T00:32:04.351Z,92.79
2023-04-15T00:33:03.921Z,92.48
2023-04-15T00:34:03.925Z,92.68
2023-04-15T00:35:03.901Z,92.38
2023-04-15T00:36:03.923Z,92.48
2023-04-15T00:37:04.697Z,92.58
2023-04-15T00:38:03.883Z,93.20
2023-04-15T00:39:03.869Z,93.41
2023-04-15T00:40:03.860Z,93.41
2023-04-15T00:41:03.852Z,93.51
2023-04-15T00:42:04.572Z,93.51
2023-04-15T00:43:03.823Z,93.51
2023-04-15T00:44:03.822Z,93.82
2023-04-15T00:45:03.803Z,94.13
2023-04-15T00:46:03.828Z,94.03
2023-04-15T00:47:04.760Z,93.97
2023-04-15T00:48:03.834Z,94.07
2023-04-15T00:49:03.763Z,94.38
2023-04-15T00:50:03.761Z,94.38
2023-04-15T00:51:03.745Z,94.38
2023-04-15T00:52:04.051Z,94.07
2023-04-15T00:53:03.730Z,94.28
2023-04-15T00:54:03.717Z,94.38
2023-04-15T00:55:03.708Z,94.38
2023-04-15T00:56:03.699Z,94.48
2023-04-15T00:57:04.568Z,94.79
2023-04-15T00:58:03.673Z,94.79
2023-04-15T00:59:03.665Z,94.90
2023-04-15T01:00:03.656Z,95.15
2023-04-15T01:01:03.639Z,95.42
2023-04-15T01:02:04.216Z,95.52
2023-04-15T01:03:03.765Z,95.62
2023-04-15T01:04:03.698Z,95.83
2023-04-15T01:05:03.611Z,96.03
2023-04-15T01:06:04.288Z,96.24
2023-04-15T01:07:04.296Z,96.24
2023-04-15T01:08:03.580Z,96.03
2023-04-15T01:09:03.773Z,95.94
2023-04-15T01:10:03.556Z,95.83
2023-04-15T01:11:03.612Z,95.52
2023-04-15T01:12:04.251Z,95.52
2023-04-15T01:13:03.514Z,95.52
2023-04-15T01:14:03.514Z,95.62
2023-04-15T01:15:03.500Z,95.62
2023-04-15T01:16:03.573Z,95.73
2023-04-15T01:17:03.814Z,95.73
2023-04-15T01:18:03.528Z,95.73
2023-04-15T01:19:03.491Z,95.62
2023-04-15T01:20:03.449Z,95.83
2023-04-15T01:21:03.435Z,95.83
2023-04-15T01:22:03.694Z,95.73
2023-04-15T01:23:03.427Z,95.73
2023-04-15T01:24:03.412Z,95.52
2023-04-15T01:25:03.398Z,95.42
2023-04-15T01:26:03.401Z,95.62
2023-04-15T01:27:03.573Z,95.62
2023-04-15T01:28:03.363Z,95.73
2023-04-15T01:29:03.357Z,95.62
2023-04-15T01:30:03.348Z,95.52
2023-04-15T01:31:03.371Z,95.73
2023-04-15T01:32:03.510Z,95.83
2023-04-15T01:33:03.381Z,95.83
2023-04-15T01:34:03.313Z,95.62
2023-04-15T01:35:03.294Z,95.52
2023-04-15T01:36:03.288Z,95.56
2023-04-15T01:37:03.449Z,95.83
2023-04-15T01:38:03.269Z,95.98
2023-04-15T01:39:03.339Z,96.03
2023-04-15T01:40:03.254Z,96.03
2023-04-15T01:41:03.233Z,96.19
2023-04-15T01:42:03.678Z,96.19
2023-04-15T01:43:03.209Z,96.29
2023-04-15T01:44:03.210Z,96.80
2023-04-15T01:45:03.207Z,96.76
2023-04-15T01:46:03.193Z,96.76
2023-04-15T01:47:04.100Z,96.97
2023-04-15T01:48:03.203Z,96.86
2023-04-15T01:49:03.201Z,96.86
2023-04-15T01:50:03.205Z,96.76
2023-04-15T01:51:03.132Z,96.76
2023-04-15T01:52:03.759Z,96.51
2023-04-15T01:53:03.117Z,96.45
2023-04-15T01:54:03.129Z,96.24
2023-04-15T01:55:03.094Z,96.09
2023-04-15T01:56:03.087Z,95.78
2023-04-15T01:57:03.851Z,95.57
2023-04-15T01:58:03.065Z,95.37
2023-04-15T01:59:03.095Z,95.37
2023-04-15T02:00:03.115Z,95.37
2023-04-15T02:01:03.230Z,95.27
2023-04-15T02:02:03.371Z,95.27
2023-04-15T02:03:03.185Z,95.27
2023-04-15T02:04:03.081Z,95.17
2023-04-15T02:05:02.998Z,95.17
2023-04-15T02:06:02.998Z,95.17
2023-04-15T02:07:03.717Z,95.17
2023-04-15T02:08:02.974Z,95.06
2023-04-15T02:09:03.168Z,94.85
2023-04-15T02:10:02.948Z,94.75
2023-04-15T02:11:02.924Z,94.85
2023-04-15T02:12:03.701Z,94.96
2023-04-15T02:13:02.914Z,95.06
2023-04-15T02:14:02.906Z,95.10
2023-04-15T02:15:02.891Z,95.10
2023-04-15T02:16:02.968Z,95.10
2023-04-15T02:17:02.872Z,95.31
2023-04-15T02:18:03.634Z,95.42
2023-04-15T02:19:03.004Z,95.42
2023-04-15T02:20:02.843Z,95.31
2023-04-15T02:21:02.826Z,95.62
2023-04-15T02:22:03.235Z,95.73
2023-04-15T02:23:02.810Z,95.62
2023-04-15T02:24:02.803Z,95.52
2023-04-15T02:25:02.793Z,95.42
2023-04-15T02:26:02.786Z,95.31
2023-04-15T02:27:03.490Z,95.21
2023-04-15T02:28:02.792Z,95.52
2023-04-15T02:29:02.946Z,95.62
2023-04-15T02:30:02.770Z,95.52
2023-04-15T02:31:02.734Z,95.52
2023-04-15T02:32:02.988Z,95.52
2023-04-15T02:33:02.789Z,95.42
2023-04-15T02:34:02.704Z,95.31
2023-04-15T02:35:02.692Z,95.21
2023-04-15T02:36:02.703Z,95.21
2023-04-15T02:37:02.681Z,95.21
2023-04-15T02:38:03.429Z,95.21
2023-04-15T02:39:03.015Z,95.21
2023-04-15T02:40:02.640Z,95.21
2023-04-15T02:41:02.627Z,95.21
2023-04-15T02:42:03.405Z,95.42
2023-04-15T02:43:02.606Z,95.46
2023-04-15T02:44:02.600Z,95.67
2023-04-15T02:45:02.586Z,95.77
2023-04-15T02:46:02.626Z,95.77
2023-04-15T02:47:03.369Z,95.67
2023-04-15T02:48:02.562Z,95.77
2023-04-15T02:49:02.872Z,95.98
2023-04-15T02:50:02.541Z,96.19
2023-04-15T02:51:02.522Z,96.29
2023-04-15T02:52:02.520Z,96.44
2023-04-15T02:53:02.814Z,96.75
2023-04-15T02:54:02.495Z,97.06
2023-04-15T02:55:02.504Z,97.26
2023-04-15T02:56:02.485Z,97.26
2023-04-15T02:57:02.460Z,97.22
2023-04-15T02:58:02.775Z,97.16
2023-04-15T02:59:02.624Z,97.01
2023-04-15T03:00:02.439Z,96.80
2023-04-15T03:01:02.457Z,96.80
2023-04-15T03:02:02.429Z,96.59
2023-04-15T03:03:02.904Z,96.59
2023-04-15T03:04:02.556Z,96.49
2023-04-15T03:05:02.378Z,96.39
2023-04-15T03:06:02.378Z,96.39
2023-04-15T03:07:02.354Z,96.49
2023-04-15T03:08:03.050Z,96.49
2023-04-15T03:09:02.536Z,96.49
2023-04-15T03:10:02.322Z,96.49
2023-04-15T03:11:02.316Z,96.49
2023-04-15T03:12:02.317Z,96.49
2023-04-15T03:13:03.130Z,96.54
2023-04-15T03:14:02.289Z,96.54
2023-04-15T03:15:02.279Z,96.49
2023-04-15T03:16:02.390Z,96.54
2023-04-15T03:17:02.248Z,96.54
2023-04-15T03:18:03.095Z,96.64
2023-04-15T03:19:02.370Z,96.85
2023-04-15T03:20:02.343Z,96.85
2023-04-15T03:21:02.218Z,96.85
2023-04-15T03:22:02.226Z,96.85
2023-04-15T03:23:02.365Z,96.95
2023-04-15T03:24:02.184Z,96.95
2023-04-15T03:25:02.203Z,96.85
2023-04-15T03:26:02.196Z,96.75
2023-04-15T03:27:02.173Z,96.85
2023-04-15T03:28:02.928Z,96.85
2023-04-15T03:29:02.331Z,97.06
2023-04-15T03:30:02.133Z,96.95
2023-04-15T03:31:02.132Z,96.85
2023-04-15T03:32:02.358Z,96.85
2023-04-15T03:33:02.131Z,96.64
2023-04-15T03:34:02.107Z,96.54
2023-04-15T03:35:02.077Z,96.54
2023-04-15T03:36:02.068Z,96.54
2023-04-15T03:37:02.870Z,96.64
2023-04-15T03:38:02.039Z,96.64
2023-04-15T03:39:02.344Z,96.54
2023-04-15T03:40:02.020Z,96.44
2023-04-15T03:41:02.048Z,96.44
2023-04-15T03:42:03.019Z,96.54
2023-04-15T03:43:01.994Z,96.54
2023-04-15T03:44:02.016Z,96.49
2023-04-15T03:45:01.969Z,96.39
2023-04-15T03:46:02.123Z,96.33
2023-04-15T03:47:02.061Z,96.33
2023-04-15T03:48:16.424Z,96.33
2023-04-15T03:49:02.117Z,96.33
2023-04-15T03:50:01.932Z,96.33
2023-04-15T03:51:01.914Z,96.44
2023-04-15T03:52:02.296Z,96.44
2023-04-15T03:53:01.881Z,96.44
2023-04-15T03:54:01.890Z,96.54
2023-04-15T03:55:01.873Z,96.54
2023-04-15T03:56:01.866Z,96.64
2023-04-15T03:57:02.495Z,96.75
2023-04-15T03:58:01.851Z,96.75
2023-04-15T03:59:02.190Z,96.85
2023-04-15T04:00:01.795Z,96.75
2023-04-15T04:01:01.805Z,96.75
2023-04-15T04:02:02.144Z,96.75
2023-04-15T04:03:01.996Z,96.70
2023-04-15T04:04:01.800Z,96.75
2023-04-15T04:05:01.703Z,96.70
2023-04-15T04:06:01.702Z,96.59
2023-04-15T04:07:02.484Z,96.59
2023-04-15T04:08:01.673Z,96.70
2023-04-15T04:09:01.958Z,96.70
2023-04-15T04:10:01.664Z,96.80
2023-04-15T04:11:01.686Z,96.80
2023-04-15T04:12:02.486Z,96.91
2023-04-15T04:13:01.618Z,96.80
2023-04-15T04:14:01.625Z,96.59
2023-04-15T04:15:01.730Z,96.49
2023-04-15T04:16:01.720Z,96.39
2023-04-15T04:17:01.992Z,96.39
2023-04-15T04:18:01.649Z,96.39
2023-04-15T04:19:01.739Z,96.19
2023-04-15T04:20:01.596Z,96.19
2023-04-15T04:21:01.545Z,96.14
2023-04-15T04:22:01.534Z,96.08
2023-04-15T04:23:02.190Z,95.98
2023-04-15T04:24:01.624Z,96.08
2023-04-15T04:25:01.503Z,95.94
2023-04-15T04:26:01.520Z,95.98
2023-04-15T04:27:02.345Z,95.87
2023-04-15T04:28:01.512Z,96.19
2023-04-15T04:29:01.697Z,96.03
2023-04-15T04:30:01.467Z,96.03
2023-04-15T04:31:01.790Z,95.98
2023-04-15T04:32:01.471Z,95.98
2023-04-15T04:33:01.829Z,95.83
2023-04-15T04:34:01.414Z,95.83
2023-04-15T04:35:01.396Z,95.87
2023-04-15T04:36:01.398Z,95.83
2023-04-15T04:37:01.379Z,95.98
2023-04-15T04:38:02.209Z,95.98
2023-04-15T04:39:01.505Z,95.94
2023-04-15T04:40:01.340Z,95.98
2023-04-15T04:41:02.024Z,95.98
2023-04-15T04:42:01.340Z,95.87
2023-04-15T04:43:01.763Z,96.08
2023-04-15T04:44:01.297Z,96.08
2023-04-15T04:45:01.302Z,96.08
2023-04-15T04:46:01.303Z,96.29
2023-04-15T04:47:01.285Z,96.19
2023-04-15T04:48:02.231Z,96.19
2023-04-15T04:49:01.566Z,96.39
2023-04-15T04:50:01.244Z,96.49
2023-04-15T04:51:01.232Z,96.55
2023-04-15T04:52:01.212Z,96.55
2023-04-15T04:53:01.483Z,96.55
2023-04-15T04:54:03.470Z,96.55
2023-04-15T04:55:01.198Z,96.55
2023-04-15T04:56:01.172Z,96.45
2023-04-15T04:57:01.170Z,96.55
2023-04-15T04:58:01.902Z,96.34
2023-04-15T04:59:01.276Z,96.24
2023-04-15T05:00:01.129Z,96.24
2023-04-15T05:01:01.205Z,96.24
2023-04-15T05:02:01.180Z,96.14
2023-04-15T05:03:01.549Z,95.83
2023-04-15T05:04:01.190Z,95.83
2023-04-15T05:05:01.086Z,95.83
2023-04-15T05:06:01.083Z,95.78
2023-04-15T05:07:01.063Z,95.99
2023-04-15T05:08:01.783Z,95.78
2023-04-15T05:09:01.192Z,95.68
2023-04-15T05:10:01.031Z,95.68
2023-04-15T05:11:01.026Z,95.78
2023-04-15T05:12:01.012Z,95.57
2023-04-15T05:13:01.015Z,95.57
2023-04-15T05:14:00.989Z,95.48
2023-04-15T05:15:00.994Z,95.68
2023-04-15T05:16:01.014Z,95.68
2023-04-15T05:17:00.963Z,95.48
2023-04-15T05:18:01.794Z,95.48
2023-04-15T05:19:01.266Z,95.48
2023-04-15T05:20:00.930Z,95.57
2023-04-15T05:21:00.928Z,95.53
2023-04-15T05:22:00.921Z,95.53
2023-04-15T05:23:01.274Z,95.53
2023-04-15T05:24:00.899Z,95.22
2023-04-15T05:25:00.890Z,95.22
2023-04-15T05:26:00.870Z,95.32
2023-04-15T05:27:00.860Z,95.12
2023-04-15T05:28:01.683Z,95.02
2023-04-15T05:29:01.264Z,95.02
2023-04-15T05:30:01.143Z,94.81
2023-04-15T05:31:00.830Z,94.81
2023-04-15T05:32:00.817Z,94.97
2023-04-15T05:33:01.166Z,94.56
2023-04-15T05:34:00.785Z,94.25
2023-04-15T05:35:00.775Z,94.35
2023-04-15T05:36:00.767Z,94.56
2023-04-15T05:37:00.758Z,94.56
2023-04-15T05:38:01.544Z,94.15
2023-04-15T05:39:01.055Z,94.15
2023-04-15T05:40:00.729Z,94.04
2023-04-15T05:41:00.718Z,93.94
2023-04-15T05:42:00.709Z,93.90
2023-04-15T05:43:01.031Z,93.90
2023-04-15T05:44:00.683Z,93.69
2023-04-15T05:45:00.679Z,93.38
2023-04-15T05:46:00.660Z,93.49
2023-04-15T05:47:00.658Z,93.59
2023-04-15T05:48:01.459Z,93.69
2023-04-15T05:49:00.889Z,93.79
2023-04-15T05:50:00.643Z,93.49
2023-04-15T05:51:00.614Z,93.49
2023-04-15T05:52:00.603Z,93.49
2023-04-15T05:53:00.919Z,93.59
2023-04-15T05:54:00.575Z,93.79
2023-04-15T05:55:00.584Z,93.75
2023-04-15T05:56:00.561Z,94.10
2023-04-15T05:57:00.550Z,93.79
2023-04-15T05:58:00.836Z,93.75
2023-04-15T05:59:00.778Z,93.96
2023-04-15T06:00:00.520Z,93.85
2023-04-15T06:01:00.523Z,93.34
2023-04-15T06:02:00.520Z,93.54
2023-04-15T06:03:00.960Z,93.69
2023-04-15T06:04:00.553Z,93.54
2023-04-15T06:05:00.548Z,93.85
2023-04-15T06:06:00.456Z,93.90
2023-04-15T06:07:00.459Z,93.90
2023-04-15T06:08:01.241Z,94.52
2023-04-15T06:09:00.643Z,94.72
2023-04-15T06:10:00.430Z,95.09
2023-04-15T06:11:00.417Z,95.30
2023-04-15T06:12:00.393Z,95.20
2023-04-15T06:13:01.210Z,94.99
2023-04-15T06:14:00.384Z,95.30
2023-04-15T06:15:00.547Z,95.81
2023-04-15T06:16:00.380Z,95.92
2023-04-15T06:17:00.358Z,96.17
2023-04-15T06:18:01.259Z,95.96
2023-04-15T06:19:00.465Z,96.17
2023-04-15T06:20:00.325Z,96.69
2023-04-15T06:21:00.311Z,97.20
2023-04-15T06:22:00.299Z,97.30
2023-04-15T06:23:00.671Z,96.79
2023-04-15T06:24:00.272Z,96.48
2023-04-15T06:25:00.309Z,96.79
2023-04-15T06:26:00.254Z,96.99
2023-04-15T06:27:00.265Z,97.61
2023-04-15T06:28:00.576Z,97.92
2023-04-15T06:29:00.590Z,98.02
2023-04-15T06:30:00.215Z,98.13
2023-04-15T06:31:00.220Z,98.33
2023-04-15T06:32:00.363Z,98.54
2023-04-15T06:33:00.737Z,97.92
2023-04-15T06:34:00.166Z,97.41
2023-04-15T06:35:00.201Z,97.30
2023-04-15T06:36:00.175Z,97.72
2023-04-15T06:37:00.144Z,97.51
2023-04-15T06:38:00.880Z,97.61
2023-04-15T06:39:00.323Z,97.72
2023-04-15T06:40:00.135Z,97.41
2023-04-15T06:41:00.139Z,97.72
2023-04-15T06:42:00.113Z,97.82
2023-04-15T06:43:00.886Z,98.02
2023-04-15T06:44:00.101Z,97.82
2023-04-15T06:45:00.075Z,98.23
2023-04-15T06:46:00.129Z,98.23
2023-04-15T06:47:00.042Z,98.33
2023-04-15T06:48:00.930Z,98.44
2023-04-15T06:49:00.300Z,98.02
2023-04-15T06:50:00.010Z,98.23
2023-04-15T06:50:59.997Z,98.02
2023-04-15T06:51:59.984Z,98.23
2023-04-15T06:53:00.350Z,98.23
2023-04-15T06:53:59.964Z,98.65
2023-04-15T06:54:59.963Z,98.54
2023-04-15T06:55:59.938Z,98.65
2023-04-15T06:56:59.935Z,98.19
2023-04-15T06:58:00.714Z,98.08
2023-04-15T06:58:59.982Z,98.19
2023-04-15T06:59:59.901Z,98.44
2023-04-15T07:00:59.954Z,97.82
2023-04-15T07:01:59.911Z,97.92
2023-04-15T07:03:00.383Z,97.82
2023-04-15T07:03:59.879Z,97.92
2023-04-15T07:04:59.860Z,98.02
2023-04-15T07:05:59.841Z,98.13
2023-04-15T07:06:59.832Z,98.44
2023-04-15T07:08:00.683Z,98.80
2023-04-15T07:09:00.026Z,98.80
2023-04-15T07:09:59.809Z,98.91
2023-04-15T07:10:59.796Z,99.11
2023-04-15T07:11:59.781Z,98.91
2023-04-15T07:13:00.654Z,98.91
2023-04-15T07:13:59.759Z,98.60
2023-04-15T07:14:59.761Z,98.19
2023-04-15T07:15:59.763Z,98.39
2023-04-15T07:16:59.818Z,98.08
2023-04-15T07:18:00.568Z,98.19
2023-04-15T07:19:00.000Z,98.19
2023-04-15T07:19:59.698Z,98.39
2023-04-15T07:20:59.691Z,98.70
2023-04-15T07:21:59.677Z,98.91
2023-04-15T07:23:00.039Z,98.39
2023-04-15T07:23:59.665Z,98.60
2023-04-15T07:24:59.665Z,98.80
2023-04-15T07:25:59.652Z,98.19
2023-04-15T07:27:01.283Z,97.77
2023-04-15T07:28:00.491Z,97.98
2023-04-15T07:28:59.927Z,98.14
2023-04-15T07:29:59.595Z,98.45
2023-04-15T07:30:59.644Z,98.66
2023-04-15T07:31:59.580Z,98.86
2023-04-15T07:32:59.967Z,98.66
2023-04-15T07:33:59.557Z,98.24
2023-04-15T07:34:59.554Z,98.55
2023-04-15T07:35:59.537Z,98.55
2023-04-15T07:36:59.533Z,98.76
2023-04-15T07:37:59.520Z,98.55
2023-04-15T07:39:00.527Z,98.55
2023-04-15T07:39:59.799Z,98.76
2023-04-15T07:40:59.487Z,98.92
2023-04-15T07:41:59.504Z,99.23
2023-04-15T07:42:59.467Z,99.33
2023-04-15T07:43:59.873Z,99.33
2023-04-15T07:44:59.449Z,99.02
2023-04-15T07:45:59.450Z,98.50
2023-04-15T07:46:59.444Z,98.41
2023-04-15T07:47:59.425Z,98.45
2023-04-15T07:49:00.671Z,98.61
2023-04-15T07:49:59.401Z,98.92
2023-04-15T07:50:59.390Z,98.71
2023-04-15T07:51:59.377Z,98.55
2023-04-15T07:52:59.751Z,98.71
2023-04-15T07:53:59.355Z,99.33
2023-04-15T07:54:59.355Z,99.54
2023-04-15T07:55:59.332Z,99.02
2023-04-15T07:56:59.339Z,99.23
2023-04-15T07:57:59.992Z,99.33
2023-04-15T07:58:59.306Z,99.43
2023-04-15T07:59:59.293Z,99.54
2023-04-15T08:00:59.299Z,98.82
2023-04-15T08:01:59.300Z,98.92
2023-04-15T08:02:59.810Z,98.50
2023-04-15T08:03:59.382Z,98.82
2023-04-15T08:04:59.258Z,98.82
2023-04-15T08:05:59.234Z,98.92
2023-04-15T08:06:59.228Z,99.02
2023-04-15T08:08:00.123Z,99.39
2023-04-15T08:08:59.210Z,99.49
2023-04-15T08:09:59.490Z,99.60
2023-04-15T08:10:59.196Z,99.39
2023-04-15T08:11:59.169Z,98.77
2023-04-15T08:12:59.853Z,98.77
2023-04-15T08:13:59.154Z,98.97
2023-04-15T08:14:59.148Z,98.67
2023-04-15T08:15:59.165Z,99.08
2023-04-15T08:16:59.128Z,97.89
2023-04-15T08:18:00.014Z,98.20
2023-04-15T08:18:59.137Z,98.41
2023-04-15T08:19:59.091Z,98.30
2023-04-15T08:20:59.093Z,98.92
2023-04-15T08:21:59.071Z,99.43
2023-04-15T08:22:59.399Z,99.23
2023-04-15T08:23:59.049Z,99.43
2023-04-15T08:24:59.039Z,98.92
2023-04-15T08:25:59.027Z,98.20
2023-04-15T08:26:59.017Z,98.82
2023-04-15T08:27:59.797Z,98.86
2023-04-15T08:28:59.023Z,99.13
2023-04-15T08:29:58.985Z,99.43
2023-04-15T08:30:58.976Z,98.92
2023-04-15T08:31:59.004Z,98.66
2023-04-15T08:32:59.336Z,99.38
2023-04-15T08:33:58.945Z,99.07
2023-04-15T08:34:58.935Z,99.27
2023-04-15T08:35:58.934Z,99.27
2023-04-15T08:36:58.918Z,99.27
2023-04-15T08:37:59.550Z,99.79
2023-04-15T08:38:58.908Z,99.99
2023-04-15T08:39:58.886Z,99.99
2023-04-15T08:40:58.868Z,99.99
2023-04-15T08:41:58.866Z,99.69
2023-04-15T08:42:59.621Z,99.99
2023-04-15T08:43:58.840Z,99.79
2023-04-15T08:44:58.836Z,99.99
2023-04-15T08:45:58.822Z,99.99
2023-04-15T08:46:58.832Z,99.99
2023-04-15T08:47:59.189Z,99.99
2023-04-15T08:48:58.801Z,99.99
2023-04-15T08:49:58.789Z,99.99
2023-04-15T08:50:58.780Z,99.99
2023-04-15T08:51:58.777Z,99.99
2023-04-15T08:52:59.261Z,99.99
2023-04-15T08:53:58.753Z,99.99
2023-04-15T08:54:58.735Z,99.99
2023-04-15T08:55:58.743Z,99.99
2023-04-15T08:56:58.712Z,99.99
2023-04-15T08:57:59.635Z,99.99
2023-04-15T08:58:58.709Z,99.99
2023-04-15T08:59:58.690Z,99.99
2023-04-15T09:00:58.696Z,99.99
2023-04-15T09:01:58.724Z,99.99
2023-04-15T09:02:59.157Z,99.99
2023-04-15T09:03:58.688Z,99.99
2023-04-15T09:04:58.634Z,99.99
2023-04-15T09:05:58.631Z,99.99
2023-04-15T09:06:58.615Z,99.99
2023-04-15T09:07:59.253Z,99.99
2023-04-15T09:08:58.592Z,99.99
2023-04-15T09:09:58.599Z,99.99
2023-04-15T09:10:58.574Z,99.99
2023-04-15T09:11:58.568Z,99.99
2023-04-15T09:12:59.250Z,99.99
2023-04-15T09:13:58.544Z,99.99
2023-04-15T09:14:58.523Z,99.99
2023-04-15T09:15:58.549Z,99.99
2023-04-15T09:16:58.620Z,99.99
2023-04-15T09:17:59.321Z,99.99
2023-04-15T09:18:58.489Z,99.99
2023-04-15T09:19:58.482Z,99.99
2023-04-15T09:20:58.468Z,99.99
2023-04-15T09:21:59.216Z,99.99
2023-04-15T09:22:58.815Z,99.99
2023-04-15T09:23:58.438Z,99.99
2023-04-15T09:24:58.423Z,99.99
2023-04-15T09:25:58.419Z,99.99
2023-04-15T09:26:58.406Z,99.99
2023-04-15T09:27:59.239Z,99.99
2023-04-15T09:28:58.389Z,99.99
2023-04-15T09:29:58.373Z,99.99
2023-04-15T09:30:58.411Z,99.99
2023-04-15T09:31:58.373Z,99.99
2023-04-15T09:32:58.683Z,99.99
2023-04-15T09:33:58.337Z,99.99
2023-04-15T09:34:58.321Z,99.99
2023-04-15T09:35:58.326Z,99.99
2023-04-15T09:36:58.298Z,99.99
2023-04-15T09:37:59.023Z,99.99
2023-04-15T09:38:58.304Z,99.99
2023-04-15T09:39:58.273Z,99.99
2023-04-15T09:40:58.262Z,99.99
2023-04-15T09:41:58.258Z,99.99
2023-04-15T09:42:58.997Z,99.99
2023-04-15T09:43:58.265Z,99.99
2023-04-15T09:44:58.211Z,99.99
2023-04-15T09:45:58.237Z,99.99
2023-04-15T09:46:58.199Z,99.99
2023-04-15T09:47:59.235Z,99.99
2023-04-15T09:48:58.179Z,99.99
2023-04-15T09:49:58.201Z,99.99
2023-04-15T09:50:58.156Z,99.99
2023-04-15T09:52:05.139Z,99.99
2023-04-15T09:52:58.444Z,99.99
2023-04-15T09:53:58.130Z,99.99
2023-04-15T09:54:58.126Z,99.99
2023-04-15T09:55:58.113Z,99.99
2023-04-15T09:56:58.097Z,99.99
2023-04-15T09:57:58.970Z,99.99
2023-04-15T09:58:58.083Z,99.99
2023-04-15T09:59:58.068Z,99.99
2023-04-15T10:00:58.095Z,99.99
2023-04-15T10:01:58.281Z,99.99
2023-04-15T10:02:58.615Z,99.99
2023-04-15T10:03:58.209Z,99.99
2023-04-15T10:04:58.013Z,99.99
2023-04-15T10:05:58.010Z,99.99
2023-04-15T10:06:57.997Z,99.99
2023-04-15T10:07:58.852Z,99.99
2023-04-15T10:08:57.984Z,99.99
2023-04-15T10:09:57.973Z,99.99
2023-04-15T10:10:57.958Z,99.99
2023-04-15T10:11:57.950Z,99.99
2023-04-15T10:12:58.657Z,99.99
2023-04-15T10:13:57.929Z,99.99
2023-04-15T10:14:57.919Z,99.99
2023-04-15T10:15:57.982Z,99.99
2023-04-15T10:16:57.930Z,99.99
2023-04-15T10:17:58.704Z,99.99
2023-04-15T10:18:57.885Z,99.99
2023-04-15T10:19:57.869Z,99.99
2023-04-15T10:20:57.856Z,99.99
2023-04-15T10:21:57.851Z,99.99
2023-04-15T10:22:58.123Z,99.99
2023-04-15T10:23:57.829Z,99.99
2023-04-15T10:24:57.816Z,99.99
2023-04-15T10:25:57.811Z,99.99
2023-04-15T10:26:57.801Z,99.99
2023-04-15T10:27:58.631Z,99.99
2023-04-15T10:28:59.951Z,99.99
2023-04-15T10:29:57.774Z,99.99
2023-04-15T10:30:57.798Z,99.99
2023-04-15T10:31:57.752Z,99.99
2023-04-15T10:32:58.104Z,99.99
2023-04-15T10:33:57.728Z,99.99
2023-04-15T10:34:57.713Z,99.99
2023-04-15T10:35:57.717Z,99.99
2023-04-15T10:36:57.693Z,99.99
2023-04-15T10:37:58.478Z,99.99
2023-04-15T10:38:57.670Z,99.99
2023-04-15T10:39:57.666Z,99.99
2023-04-15T10:40:57.653Z,99.99
2023-04-15T10:41:57.650Z,99.99
2023-04-15T10:42:57.953Z,99.99
2023-04-15T10:43:57.633Z,99.99
2023-04-15T10:44:57.609Z,99.99
2023-04-15T10:45:57.601Z,99.99
2023-04-15T10:46:57.745Z,99.99
2023-04-15T10:47:58.015Z,99.99
2023-04-15T10:48:57.568Z,99.99
2023-04-15T10:49:57.566Z,99.99
2023-04-15T10:50:57.546Z,99.99
2023-04-15T10:51:57.544Z,99.99
2023-04-15T10:52:57.858Z,99.99
2023-04-15T10:53:57.526Z,99.99
2023-04-15T10:54:57.508Z,99.99
2023-04-15T10:55:57.503Z,99.99
2023-04-15T10:56:57.485Z,99.99
2023-04-15T10:57:58.338Z,99.99
2023-04-15T10:58:57.468Z,99.99
2023-04-15T10:59:57.460Z,99.99
2023-04-15T11:00:57.444Z,99.99
2023-04-15T11:01:57.522Z,99.99
2023-04-15T11:02:57.871Z,99.99
2023-04-15T11:03:57.684Z,99.99
2023-04-15T11:04:57.447Z,99.99
2023-04-15T11:05:57.411Z,99.99
2023-04-15T11:06:57.377Z,99.99
2023-04-15T11:07:57.834Z,99.99
2023-04-15T11:08:57.365Z,99.99
2023-04-15T11:09:57.354Z,99.99
2023-04-15T11:10:57.355Z,99.99
2023-04-15T11:11:57.336Z,99.99
2023-04-15T11:12:58.055Z,99.99
2023-04-15T11:13:57.319Z,99.99
2023-04-15T11:14:57.300Z,99.99
2023-04-15T11:15:57.359Z,99.99
2023-04-15T11:16:57.284Z,99.99
2023-04-15T11:17:57.602Z,99.99
2023-04-15T11:18:57.258Z,99.99
2023-04-15T11:19:57.254Z,99.99
2023-04-15T11:20:57.245Z,99.99
2023-04-15T11:21:57.225Z,99.99
2023-04-15T11:23:14.141Z,99.99
2023-04-15T11:23:57.219Z,99.99
2023-04-15T11:24:57.194Z,99.99
2023-04-15T11:25:57.192Z,99.99
2023-04-15T11:26:57.174Z,99.99
2023-04-15T11:27:57.915Z,99.99
2023-04-15T11:28:57.151Z,99.99
2023-04-15T11:29:57.147Z,99.99
2023-04-15T11:30:57.148Z,99.99
2023-04-15T11:31:57.157Z,99.99
2023-04-15T11:32:57.639Z,99.99
2023-04-15T11:33:57.123Z,99.99
2023-04-15T11:34:57.090Z,99.99
2023-04-15T11:35:57.093Z,99.99
2023-04-15T11:36:57.078Z,99.99
2023-04-15T11:37:57.372Z,99.99
2023-04-15T11:38:57.055Z,99.99
2023-04-15T11:39:57.047Z,99.99
2023-04-15T11:40:57.037Z,99.99
2023-04-15T11:41:57.031Z,99.99
2023-04-15T11:42:57.929Z,99.99
2023-04-15T11:43:57.034Z,99.99
2023-04-15T11:44:56.999Z,99.99
2023-04-15T11:45:57.033Z,99.99
2023-04-15T11:46:57.287Z,99.99
2023-04-15T11:47:57.307Z,99.99
2023-04-15T11:48:56.962Z,99.99
2023-04-15T11:49:56.948Z,99.99
2023-04-15T11:50:56.973Z,99.99
2023-04-15T11:51:56.926Z,99.99
2023-04-15T11:52:57.808Z,99.99
2023-04-15T11:53:56.909Z,99.99
2023-04-15T11:54:56.896Z,99.99
2023-04-15T11:55:56.897Z,99.99
2023-04-15T11:56:56.887Z,99.99
2023-04-15T11:57:57.166Z,99.99
2023-04-15T11:58:57.147Z,99.99
2023-04-15T11:59:56.884Z,99.99
2023-04-15T12:00:56.843Z,99.99
2023-04-15T12:01:56.866Z,99.99
2023-04-15T12:02:57.719Z,99.99
2023-04-15T12:03:56.915Z,99.99
2023-04-15T12:04:56.816Z,99.99
2023-04-15T12:05:56.787Z,99.99
2023-04-15T12:06:56.769Z,99.99
2023-04-15T12:07:57.073Z,99.99
2023-04-15T12:08:56.759Z,99.99
2023-04-15T12:09:56.784Z,99.99
2023-04-15T12:10:56.740Z,99.99
2023-04-15T12:11:56.734Z,99.99
2023-04-15T12:12:57.513Z,99.99
2023-04-15T12:13:56.717Z,99.99
2023-04-15T12:14:56.687Z,99.99
2023-04-15T12:15:56.758Z,99.99
2023-04-15T12:16:58.517Z,99.99
2023-04-15T12:17:57.126Z,99.99
2023-04-15T12:18:56.653Z,99.99
2023-04-15T12:19:56.633Z,99.99
2023-04-15T12:20:56.625Z,99.99
2023-04-15T12:21:57.845Z,99.99
2023-04-15T12:22:56.605Z,99.99
2023-04-15T12:23:57.380Z,99.99
2023-04-15T12:24:56.586Z,99.99
2023-04-15T12:25:57.390Z,99.99
2023-04-15T12:26:56.565Z,99.99
2023-04-15T12:27:56.562Z,99.99
2023-04-15T12:28:57.387Z,99.99
2023-04-15T12:29:56.538Z,99.99
2023-04-15T12:30:56.541Z,99.99
2023-04-15T12:31:56.517Z,99.99
2023-04-15T12:32:56.551Z,99.99
2023-04-15T12:33:56.804Z,99.99
2023-04-15T12:34:56.481Z,99.99
2023-04-15T12:35:56.487Z,99.99
2023-04-15T12:36:56.482Z,99.99
2023-04-15T12:37:56.459Z,99.99
2023-04-15T12:38:57.344Z,99.99
2023-04-15T12:39:56.442Z,99.99
2023-04-15T12:40:56.425Z,99.99
2023-04-15T12:41:56.424Z,99.99
2023-04-15T12:42:56.403Z,99.99
2023-04-15T12:43:56.715Z,99.99
2023-04-15T12:44:56.383Z,99.99
2023-04-15T12:45:56.379Z,99.99
2023-04-15T12:46:56.458Z,99.99
2023-04-15T12:47:56.390Z,99.99
2023-04-15T12:48:57.175Z,99.99
2023-04-15T12:49:56.340Z,99.99
2023-04-15T12:50:56.330Z,99.99
2023-04-15T12:51:56.325Z,99.99